PWSweather.com
Personal Weather Stations
Station Observations

AwhituWaiuku, CA 268400

Lat: -37.058, Lon: -174.6346

Elevation: 250

Station Type: Personal

http://www.weather-display.com/windy/gb/grahamsbeach.htm

High Low Average
Temperature 65.4°F18.6°F 57.2°F14.0°F 61.6°F16.4°F
Dew Point 64.8°F18.2°F 56.6°F13.7°F 61.0°F16.1°F
Winds 23.0 mph WNW37.0 mph WNW 1.2 mph 1.9 mph 9.4 mph 15.1 mph
Wind Gusts 25.3 mph40.7 mph 2.3 mph3.7 mph 11.8 mph19.0 mph
Humidity 98% 98% 98%
Pressure 30.11 in1019.60 in 30.01 in1016.30 in -
Precipitation 0.00 in0.00 in - -
Hour Temp Dew Point Humidity Winds Wind Gusts Pressure Precip Precip Rate Daily Precip Total
12:00 AM 65.2°F18.4°C 64.6°F18.1°C 98% 23.0 mph WNW37.0 kmh WNW 25.3 mph40.7 kmh 30.01 in1016.3 mb 0.00 in0.0 mm 0.00 in/hr0.0 mm/hr 0.00 in0.0 mm
12:30 AM 65.0°F18.3°C 64.4°F18.0°C 98% 18.4 mph W29.6 kmh W 19.6 mph31.5 kmh 30.02 in1016.6 mb 0.00 in0.0 mm 0.00 in/hr0.0 mm/hr 0.00 in0.0 mm
01:00 AM 63.9°F17.7°C 63.3°F17.4°C 98% 18.4 mph WSW29.6 kmh WSW 19.6 mph31.5 kmh 30.01 in1016.3 mb 0.00 in0.0 mm 0.00 in/hr0.0 mm/hr 0.00 in0.0 mm
01:30 AM 63.2°F17.3°C 62.6°F17.0°C 98% 13.8 mph W22.2 kmh W 18.4 mph29.6 kmh 30.01 in1016.3 mb 0.00 in0.0 mm 0.00 in/hr0.0 mm/hr 0.00 in0.0 mm
02:00 AM 62.9°F17.2°C 62.3°F16.8°C 98% 10.4 mph WSW16.7 kmh WSW 12.7 mph20.4 kmh 30.02 in1016.6 mb 0.00 in0.0 mm 0.00 in/hr0.0 mm/hr 0.00 in0.0 mm
02:30 AM 62.4°F16.9°C 61.8°F16.6°C 98% 9.2 mph WSW14.8 kmh WSW 10.4 mph16.7 kmh 30.03 in1016.9 mb 0.00 in0.0 mm 0.00 in/hr0.0 mm/hr 0.00 in0.0 mm
03:00 AM 62.3°F16.8°C 61.7°F16.5°C 98% 9.2 mph W14.8 kmh W 12.7 mph20.4 kmh 30.03 in1016.9 mb 0.00 in0.0 mm 0.00 in/hr0.0 mm/hr 0.00 in0.0 mm
03:30 AM 61.8°F16.6°C 61.2°F16.2°C 98% 10.4 mph WSW16.7 kmh WSW 13.8 mph22.2 kmh 30.03 in1016.9 mb 0.00 in0.0 mm 0.00 in/hr0.0 mm/hr 0.00 in0.0 mm
04:00 AM 61.0°F16.1°C 60.4°F15.8°C 98% 8.1 mph WSW13.0 kmh WSW 10.4 mph16.7 kmh 30.03 in1016.9 mb 0.00 in0.0 mm 0.00 in/hr0.0 mm/hr 0.00 in0.0 mm
04:30 AM 60.1°F15.6°C 59.6°F15.3°C 98% 9.2 mph WSW14.8 kmh WSW 11.5 mph18.5 kmh 30.03 in1016.9 mb 0.00 in0.0 mm 0.00 in/hr0.0 mm/hr 0.00 in0.0 mm
05:00 AM 59.5°F15.3°C 58.9°F14.9°C 98% 8.1 mph WSW13.0 kmh WSW 10.4 mph16.7 kmh 30.03 in1016.9 mb 0.00 in0.0 mm 0.00 in/hr0.0 mm/hr 0.00 in0.0 mm
05:30 AM 59.4°F15.2°C 58.9°F14.9°C 98% 9.2 mph WSW14.8 kmh WSW 12.7 mph20.4 kmh 30.04 in1017.3 mb 0.00 in0.0 mm 0.00 in/hr0.0 mm/hr 0.00 in0.0 mm
06:00 AM 59.2°F15.1°C 58.7°F14.8°C 98% 10.4 mph SW16.7 kmh SW 13.8 mph22.2 kmh 30.06 in1017.9 mb 0.00 in0.0 mm 0.00 in/hr0.0 mm/hr 0.00 in0.0 mm
06:30 AM 59.1°F15.1°C 58.5°F14.7°C 98% 8.1 mph S13.0 kmh S 9.2 mph14.8 kmh 30.07 in1018.3 mb 0.00 in0.0 mm 0.00 in/hr0.0 mm/hr 0.00 in0.0 mm
07:00 AM 59.6°F15.3°C 59.1°F15.1°C 98% 6.9 mph WSW11.1 kmh WSW 8.1 mph13.0 kmh 30.08 in1018.6 mb 0.00 in0.0 mm 0.00 in/hr0.0 mm/hr 0.00 in0.0 mm
07:30 AM 60.1°F15.6°C 59.6°F15.3°C 98% 9.2 mph SW14.8 kmh SW 13.8 mph22.2 kmh 30.09 in1019.0 mb 0.00 in0.0 mm 0.00 in/hr0.0 mm/hr 0.00 in0.0 mm
08:00 AM 60.5°F15.8°C 59.9°F15.5°C 98% 10.4 mph WSW16.7 kmh WSW 17.3 mph27.8 kmh 30.09 in1019.0 mb 0.00 in0.0 mm 0.00 in/hr0.0 mm/hr 0.00 in0.0 mm
08:30 AM 61.1°F16.2°C 60.5°F15.8°C 98% 9.2 mph WSW14.8 kmh WSW 11.5 mph18.5 kmh 30.10 in1019.3 mb 0.00 in0.0 mm 0.00 in/hr0.0 mm/hr 0.00 in0.0 mm
09:00 AM 61.4°F16.3°C 60.8°F16.0°C 98% 12.7 mph WSW20.4 kmh WSW 12.7 mph20.4 kmh 30.09 in1019.0 mb 0.00 in0.0 mm 0.00 in/hr0.0 mm/hr 0.00 in0.0 mm
09:30 AM 62.2°F16.8°C 61.6°F16.4°C 98% 13.8 mph WSW22.2 kmh WSW 17.3 mph27.8 kmh 30.10 in1019.3 mb 0.00 in0.0 mm 0.00 in/hr0.0 mm/hr 0.00 in0.0 mm
10:00 AM 62.9°F17.2°C 62.4°F16.9°C 98% 11.5 mph WSW18.5 kmh WSW 16.1 mph25.9 kmh 30.09 in1019.0 mb 0.00 in0.0 mm 0.00 in/hr0.0 mm/hr 0.00 in0.0 mm
10:30 AM 63.8°F17.7°C 63.2°F17.3°C 98% 9.2 mph SW14.8 kmh SW 11.5 mph18.5 kmh 30.09 in1019.0 mb 0.00 in0.0 mm 0.00 in/hr0.0 mm/hr 0.00 in0.0 mm
11:00 AM 64.6°F18.1°C 64.0°F17.8°C 98% 4.6 mph SSW7.4 kmh SSW 10.4 mph16.7 kmh 30.09 in1019.0 mb 0.00 in0.0 mm 0.00 in/hr0.0 mm/hr 0.00 in0.0 mm
11:30 AM 64.4°F18.0°C 63.8°F17.7°C 98% 5.8 mph SSW9.3 kmh SSW 8.1 mph13.0 kmh 30.09 in1019.0 mb 0.00 in0.0 mm 0.00 in/hr0.0 mm/hr 0.00 in0.0 mm
12:00 PM 64.9°F18.3°C 64.3°F17.9°C 98% 8.1 mph WSW13.0 kmh WSW 9.2 mph14.8 kmh 30.09 in1019.0 mb 0.00 in0.0 mm 0.00 in/hr0.0 mm/hr 0.00 in0.0 mm
12:30 PM 65.4°F18.6°C 64.8°F18.2°C 98% 9.2 mph W14.8 kmh W 10.4 mph16.7 kmh 30.11 in1019.6 mb 0.00 in0.0 mm 0.00 in/hr0.0 mm/hr 0.00 in0.0 mm
01:00 PM 64.1°F17.8°C 63.5°F17.5°C 98% 11.5 mph WSW18.5 kmh WSW 15.0 mph24.1 kmh 30.11 in1019.6 mb 0.00 in0.0 mm 0.00 in/hr0.0 mm/hr 0.00 in0.0 mm
01:30 PM 64.6°F18.1°C 64.0°F17.8°C 98% 8.1 mph SW13.0 kmh SW 16.1 mph25.9 kmh 30.10 in1019.3 mb 0.00 in0.0 mm 0.00 in/hr0.0 mm/hr 0.00 in0.0 mm
02:00 PM 62.5°F16.9°C 62.0°F16.7°C 98% 6.9 mph SSW11.1 kmh SSW 9.2 mph14.8 kmh 30.09 in1019.0 mb 0.00 in0.0 mm 0.00 in/hr0.0 mm/hr 0.00 in0.0 mm
02:30 PM 63.9°F17.7°C 63.3°F17.4°C 98% 12.7 mph SW20.4 kmh SW 13.8 mph22.2 kmh 30.08 in1018.6 mb 0.00 in0.0 mm 0.00 in/hr0.0 mm/hr 0.00 in0.0 mm
03:00 PM 64.6°F18.1°C 64.1°F17.8°C 98% 8.1 mph SW13.0 kmh SW 11.5 mph18.5 kmh 30.08 in1018.6 mb 0.00 in0.0 mm 0.00 in/hr0.0 mm/hr 0.00 in0.0 mm
03:30 PM 63.8°F17.7°C 63.3°F17.4°C 98% 9.2 mph W14.8 kmh W 11.5 mph18.5 kmh 30.07 in1018.3 mb 0.00 in0.0 mm 0.00 in/hr0.0 mm/hr 0.00 in0.0 mm
04:00 PM 63.4°F17.4°C 62.8°F17.1°C 98% 10.4 mph WSW16.7 kmh WSW 12.7 mph20.4 kmh 30.07 in1018.3 mb 0.00 in0.0 mm 0.00 in/hr0.0 mm/hr 0.00 in0.0 mm
04:30 PM 62.9°F17.2°C 62.3°F16.8°C 98% 11.5 mph SW18.5 kmh SW 12.7 mph20.4 kmh 30.07 in1018.3 mb 0.00 in0.0 mm 0.00 in/hr0.0 mm/hr 0.00 in0.0 mm
05:00 PM 62.6°F17.0°C 62.0°F16.7°C 98% 8.1 mph WSW13.0 kmh WSW 12.7 mph20.4 kmh 30.07 in1018.3 mb 0.00 in0.0 mm 0.00 in/hr0.0 mm/hr 0.00 in0.0 mm
05:30 PM 61.7°F16.5°C 61.2°F16.2°C 98% 8.1 mph WSW13.0 kmh WSW 8.1 mph13.0 kmh 30.07 in1018.3 mb 0.00 in0.0 mm 0.00 in/hr0.0 mm/hr 0.00 in0.0 mm
06:00 PM 61.1°F16.2°C 60.5°F15.8°C 98% 6.9 mph SW11.1 kmh SW 9.2 mph14.8 kmh 30.08 in1018.6 mb 0.00 in0.0 mm 0.00 in/hr0.0 mm/hr 0.00 in0.0 mm
06:30 PM 59.8°F15.4°C 59.2°F15.1°C 98% 8.1 mph WSW13.0 kmh WSW 10.4 mph16.7 kmh 30.10 in1019.3 mb 0.00 in0.0 mm 0.00 in/hr0.0 mm/hr 0.00 in0.0 mm
07:00 PM 58.9°F14.9°C 58.3°F14.6°C 98% 8.1 mph WSW13.0 kmh WSW 9.2 mph14.8 kmh 30.09 in1019.0 mb 0.00 in0.0 mm 0.00 in/hr0.0 mm/hr 0.00 in0.0 mm
07:30 PM 58.5°F14.7°C 58.0°F14.4°C 98% 5.8 mph SSW9.3 kmh SSW 6.9 mph11.1 kmh 30.09 in1019.0 mb 0.00 in0.0 mm 0.00 in/hr0.0 mm/hr 0.00 in0.0 mm
08:00 PM 58.3°F14.6°C 57.7°F14.3°C 98% 8.1 mph SSW13.0 kmh SSW 8.1 mph13.0 kmh 30.10 in1019.3 mb 0.00 in0.0 mm 0.00 in/hr0.0 mm/hr 0.00 in0.0 mm
08:30 PM 58.2°F14.6°C 57.6°F14.2°C 98% 8.1 mph SW13.0 kmh SW 9.2 mph14.8 kmh 30.10 in1019.3 mb 0.00 in0.0 mm 0.00 in/hr0.0 mm/hr 0.00 in0.0 mm
09:00 PM 57.9°F14.4°C 57.3°F14.1°C 98% 6.9 mph SW11.1 kmh SW 8.1 mph13.0 kmh 30.11 in1019.6 mb 0.00 in0.0 mm 0.00 in/hr0.0 mm/hr 0.00 in0.0 mm
09:30 PM 58.2°F14.6°C 57.7°F14.3°C 98% 6.9 mph SW11.1 kmh SW 8.1 mph13.0 kmh 30.11 in1019.6 mb 0.00 in0.0 mm 0.00 in/hr0.0 mm/hr 0.00 in0.0 mm
10:00 PM 58.0°F14.4°C 57.4°F14.1°C 98% 9.2 mph W14.8 kmh W 10.4 mph16.7 kmh 30.11 in1019.6 mb 0.00 in0.0 mm 0.00 in/hr0.0 mm/hr 0.00 in0.0 mm
10:30 PM 57.8°F14.3°C 57.2°F14.0°C 98% 2.3 mph SW3.7 kmh SW 2.3 mph3.7 kmh 30.11 in1019.6 mb 0.00 in0.0 mm 0.00 in/hr0.0 mm/hr 0.00 in0.0 mm
11:30 PM 57.2°F14.0°C 56.6°F13.7°C 98% 1.2 mph SW1.9 kmh SW 2.3 mph3.7 kmh 30.10 in1019.3 mb 0.00 in0.0 mm 0.00 in/hr0.0 mm/hr 0.00 in0.0 mm